Pagrindinis puslapis
METAR-TAF:

METAR-TAF

Oro uostai :

Bratskas, Rusija

platuma: 56-22-15N, ilguma: 101-41-55E, Aukštis: 490 m

Dabartinis oras

Ataskaita buvo paskelbta 16 minutes, ne 13:30 UTC
Vėjas 4 kt iš Pietų
Temperatūra 7°C
Drėgmė 76%
Slėgis 1015 hPa
Matomumas 10 km arba daugiau
Mažai debesys ne aukštis 5000 ft, Liūtiniai kamuoliniai debesys.

METAR: UIBB 291330Z 18002MPS 9999 FEW050CB 07/03 Q1015 R30/CLRD60 NOSIG RMK QFE718/0958

Laikas: 21:46 (13:46 UTC)

Prognozė

Ataskaita buvo paskelbta 2 valandos ir 46 minutes, ne 11:00 UTC
Prognozė galioja nuo 29 metu 12 UTC su 30 metu 12 UTC
Vėjas 10 kt iš Vakarų
Matomumas 10 km arba daugiau
Mažai debesys ne aukštis 500 ft
Su prošvaistėmis ne aukštis 1600 ft, Liūtiniai kamuoliniai debesys.
Tikimybė 40% :
Laikinai
nuo 29 metu 12 UTC su 29 metu 15 UTC
perkūnija, lietus
Tapsmas
nuo 30 metu 00 UTC su 30 metu 01 UTC
Vėjas 6 kt iš Pietų su gūsio iki 16 kt

TAF: UIBB 291100Z 2912/3012 27005MPS 9999 FEW005 BKN016CB PROB40 TEMPO 2912/2915 -TSRA BECMG 3000/3001 18003G08MPS

Orai ataskaitas ir orų prognozės (METAR, TAF).

turimą stotys yra geltonos ir raudonos taškus žemėlapyje.

Perkelti pele per norėdami pamatyti stoties vardą.

Tada spustelėkite, norėdami matyti oro stebėjimo ir prognozės.

Norėdami pakeisti žemėlapį: spustelėkite ant žalios mygtukų su juodo kryžiaus žemyn,; žalią mygtuką su brūkšneliu, jei norite nutolinti; arba žalių rodyklių gretimoms žemėlapius.


METAR-TAF: